Cleaton, KY (42332)

2:03 PM CST on March 06, 2015 (GMT -0600)
RAWS GREENVILLE KY US | Change Station
CLOSE
Current Station
Personal Weather Station
Location: Central City, KY
Elevation: 551 ft
Nearby Weather Stations

Elev 551 ft 37.27 °N, 87.20 °W | Updated 48 minutes ago

Clear
Clear
32 °F
Feels Like 27 °F
N
5
Wind Variable Wind from WNW
Gusts 11.0 mph

Today
High -- | Low -- °F
--% Chance of Precip.
Yesterday
High -- | Low -- °F
Precip. -- in
6:12 AM 5:47 PM
Full, 99% visible
Pressure 30.49 in
Visibility 10.0 miles
Clouds Clear
Windchill 27 °F
Dew Point 13 °F
Humidity 45%
Rainfall in
Snow Depth Not available.
UV 5 out of 12
Pollen .60 out of 12
Air Quality Not available.
Flu Activity Not available.
METAR K2I0 061955Z AUTO 23008KT 10SM CLR 00/M11 A3049 RMK AO2 T00001115

More Conditions Fewer Conditions

Pressure 30.49 in
Visibility 10.0 miles
Clouds Clear
Windchill 27 °F
Dew Point 13 °F
Humidity 45%
Rainfall in
Snow Depth Not available.
UV 5 out of 12
Pollen .60 out of 12
Air Quality Not available.
Flu Activity Not available.
METAR K2I0 061955Z AUTO 23008KT 10SM CLR 00/M11 A3049 RMK AO2 T00001115

More Conditions Fewer Conditions

10-Day Weather Forecast

Almanac

Astronomy

Mar. 06, 2015 Rise Set
Actual Time
Civil Twilight
Nautical Twilight
Astronomical Twilight
Moon
Length of Visible Light
Length of Day
Tomorrow will be .
, % of the Moon is Illuminated

Today's Extremes

State Highs State Lows

Community

WunderPhotos

Upload Photos

1,803,386 photos uploaded!

WunderBlogs® & News

Nearby

Air Quality

  Air Quality AQ Index Pollutant
Not available.

Snow Depth

Station Depth Elevation

Earthquake Activity

City Distance Mag. Time & Date
Minimum magnitude displayed is 2.5.

Coastal Water Temperatures

Place Temperature

Nearby Weather Stations

Flood Warning
Statement as of 11:18 AM EST on March 06, 2015

The Flood Warning continues for
the Green River at Rochester.
* Until further notice.
* At 7:00 am Friday the stage was 19.8 feet.
* Flood stage is 17.0 feet.
* Minor flooding is occurring and minor flooding is forecast.
* Forecast... the river will continue rising to near 22.1 feet by
Sunday early afternoon then begin falling.
* Impact... at 17.0 feet... Reeds and Rochester ferries are shut down.
KY 369 floods one mile north of Rochester.
* Flood history... this crest compares to a previous crest of 22.0
feet on Feb 21 2003.


Lat... Lon 3739 8678 3727 8697 3718 8690 3728 8680





1001 am CST Fri Mar 6 2015

The Flood Warning continues for
the Green River at Paradise
* until further notice.
* At 9:15 am Friday the stage was 386.8 feet.
* Flood stage is 380.0 feet.
* Moderate flooding is occurring and moderate flooding is forecast.
* Forecast... the river will continue rising to near 388.0 feet by
Sunday early afternoon then begin falling.


Lat... Lon 3746 8716 3731 8719 3729 8707 3720 8697
      3726 8689 3742 8703